createdAt,value
2018-11-02T00:01:32.266Z,25.30
2018-11-02T00:04:00.429Z,25.33
2018-11-02T00:06:28.825Z,26.87
2018-11-02T00:08:56.906Z,25.33
2018-11-02T00:11:24.782Z,28.73
2018-11-02T00:13:52.588Z,29.60
2018-11-02T00:16:20.140Z,27.57
2018-11-02T00:18:47.166Z,28.53
2018-11-02T00:21:13.928Z,26.70
2018-11-02T00:23:40.711Z,27.63
2018-11-02T00:26:07.482Z,27.40
2018-11-02T00:28:34.186Z,27.83
2018-11-02T00:31:01.917Z,30.13
2018-11-02T00:33:28.817Z,31.30
2018-11-02T00:35:55.611Z,30.37
2018-11-02T00:38:22.450Z,30.33
2018-11-02T00:40:50.017Z,33.27
2018-11-02T00:43:17.650Z,30.03
2018-11-02T00:45:45.104Z,33.03
2018-11-02T00:48:12.010Z,33.13
2018-11-02T00:50:39.464Z,35.47
2018-11-02T00:53:07.131Z,33.63
2018-11-02T00:55:34.030Z,35.97
2018-11-02T00:58:01.673Z,34.70
2018-11-02T01:00:28.635Z,35.33
2018-11-02T01:02:55.340Z,34.03
2018-11-02T01:05:22.952Z,33.57
2018-11-02T01:07:50.791Z,32.30
2018-11-02T01:10:17.470Z,31.90
2018-11-02T01:12:44.185Z,30.87
2018-11-02T01:15:11.109Z,33.33
2018-11-02T01:17:37.852Z,32.60
2018-11-02T01:20:04.799Z,33.50
2018-11-02T01:22:32.719Z,32.77
2018-11-02T01:25:00.255Z,32.07
2018-11-02T01:27:27.164Z,32.50
2018-11-02T01:29:54.108Z,31.77
2018-11-02T01:32:20.944Z,32.47
2018-11-02T01:34:47.718Z,32.50
2018-11-02T01:37:15.358Z,31.63
2018-11-02T01:39:42.050Z,31.87
2018-11-02T01:42:08.913Z,33.03
2018-11-02T01:44:35.830Z,31.73
2018-11-02T01:47:02.703Z,29.10
2018-11-02T01:49:29.476Z,29.97
2018-11-02T01:51:56.226Z,28.57
2018-11-02T01:54:23.481Z,29.87
2018-11-02T01:56:50.321Z,30.47
2018-11-02T01:59:17.120Z,30.43
2018-11-02T02:01:44.716Z,31.53
2018-11-02T02:04:11.621Z,31.30
2018-11-02T02:06:40.689Z,30.63
2018-11-02T02:09:08.709Z,31.83
2018-11-02T02:11:35.884Z,30.20
2018-11-02T02:14:03.170Z,31.47
2018-11-02T02:16:30.038Z,32.67
2018-11-02T02:18:57.015Z,33.43
2018-11-02T02:21:23.933Z,32.70
2018-11-02T02:23:50.779Z,31.30
2018-11-02T02:26:17.704Z,32.03
2018-11-02T02:28:44.847Z,33.10
2018-11-02T02:31:11.578Z,31.40
2018-11-02T02:33:39.187Z,32.80
2018-11-02T02:36:06.269Z,32.07
2018-11-02T02:38:34.653Z,32.80
2018-11-02T02:41:01.569Z,30.80
2018-11-02T02:43:29.241Z,30.33
2018-11-02T02:45:56.914Z,30.07
2018-11-02T02:48:23.833Z,27.90
2018-11-02T02:50:50.905Z,27.57
2018-11-02T02:53:18.728Z,27.40
2018-11-02T02:55:46.939Z,28.03
2018-11-02T02:58:14.908Z,27.20
2018-11-02T03:00:42.742Z,26.87
2018-11-02T03:03:10.257Z,27.73
2018-11-02T03:05:37.905Z,28.87
2018-11-02T03:08:04.909Z,30.20
2018-11-02T03:10:31.873Z,29.27
2018-11-02T03:12:58.686Z,30.40
2018-11-02T03:15:25.425Z,28.37
2018-11-02T03:17:52.503Z,29.43
2018-11-02T03:20:19.265Z,29.33
2018-11-02T03:22:46.039Z,30.03
2018-11-02T03:25:13.025Z,30.13
2018-11-02T03:27:39.791Z,30.20
2018-11-02T03:30:06.728Z,31.33
2018-11-02T03:32:33.578Z,28.87
2018-11-02T03:35:01.129Z,31.20
2018-11-02T03:37:28.288Z,29.67
2018-11-02T03:39:55.034Z,30.37
2018-11-02T03:42:22.759Z,30.83
2018-11-02T03:44:51.249Z,31.63
2018-11-02T03:47:18.161Z,30.93
2018-11-02T03:49:45.569Z,30.63
2018-11-02T03:52:12.599Z,30.17
2018-11-02T03:54:39.255Z,28.37
2018-11-02T03:57:05.944Z,31.47
2018-11-02T03:59:32.775Z,30.10
2018-11-02T04:02:00.204Z,30.33
2018-11-02T04:04:26.954Z,30.03
2018-11-02T04:06:53.769Z,30.03
2018-11-02T04:09:20.466Z,32.70
2018-11-02T04:11:47.888Z,30.50
2018-11-02T04:14:14.734Z,31.33
2018-11-02T04:16:41.407Z,30.20
2018-11-02T04:19:08.855Z,29.60
2018-11-02T04:21:36.343Z,31.93
2018-11-02T04:24:03.057Z,31.33
2018-11-02T04:26:29.745Z,30.47
2018-11-02T04:28:56.627Z,31.77
2018-11-02T04:31:23.331Z,33.10
2018-11-02T04:33:50.034Z,33.60
2018-11-02T04:36:16.863Z,31.33
2018-11-02T04:38:44.274Z,31.00
2018-11-02T04:41:10.951Z,32.20
2018-11-02T04:43:38.534Z,31.77
2018-11-02T04:46:05.265Z,31.03
2018-11-02T04:48:32.007Z,30.07
2018-11-02T04:50:58.885Z,30.50
2018-11-02T04:53:26.231Z,30.47
2018-11-02T04:55:52.892Z,31.60
2018-11-02T04:58:19.612Z,29.90
2018-11-02T05:00:46.329Z,30.50
2018-11-02T05:03:13.016Z,30.93
2018-11-02T05:05:39.714Z,29.63
2018-11-02T05:08:06.441Z,28.90
2018-11-02T05:10:33.127Z,29.70
2018-11-02T05:12:59.982Z,28.30
2018-11-02T05:15:26.620Z,28.23
2018-11-02T05:17:53.271Z,26.13
2018-11-02T05:20:20.046Z,27.13
2018-11-02T05:22:46.759Z,27.00
2018-11-02T05:25:13.427Z,27.03
2018-11-02T05:27:40.177Z,26.70
2018-11-02T05:30:07.204Z,26.77
2018-11-02T05:32:33.912Z,27.20
2018-11-02T05:35:00.639Z,28.23
2018-11-02T05:37:27.380Z,26.53
2018-11-02T05:39:54.071Z,26.77
2018-11-02T05:42:20.802Z,26.33
2018-11-02T05:44:48.282Z,25.80
2018-11-02T05:47:15.005Z,25.57
2018-11-02T05:49:42.406Z,25.40
2018-11-02T05:52:09.268Z,24.83
2018-11-02T05:54:35.948Z,24.13
2018-11-02T05:57:02.618Z,25.13
2018-11-02T05:59:30.214Z,24.40
2018-11-02T06:01:56.914Z,24.13
2018-11-02T06:04:23.580Z,23.97
2018-11-02T06:06:54.011Z,23.47
2018-11-02T06:09:21.427Z,23.53
2018-11-02T06:11:48.295Z,24.77
2018-11-02T06:14:14.920Z,23.50
2018-11-02T06:16:41.591Z,24.13
2018-11-02T06:19:09.150Z,23.70
2018-11-02T06:21:35.836Z,23.83
2018-11-02T06:24:02.580Z,22.63
2018-11-02T06:26:29.266Z,21.97
2018-11-02T06:28:56.022Z,23.17
2018-11-02T06:31:22.795Z,21.47
2018-11-02T06:33:49.515Z,23.50
2018-11-02T06:36:16.933Z,25.13
2018-11-02T06:38:43.702Z,24.20
2018-11-02T06:41:11.140Z,22.20
2018-11-02T06:43:39.469Z,21.60
2018-11-02T06:46:06.668Z,21.73
2018-11-02T06:48:33.339Z,20.33
2018-11-02T06:51:00.873Z,20.47
2018-11-02T06:53:28.286Z,19.57
2018-11-02T06:55:54.950Z,19.33
2018-11-02T06:58:21.609Z,19.47
2018-11-02T07:00:48.434Z,19.07
2018-11-02T07:03:15.114Z,18.70
2018-11-02T07:05:42.546Z,18.30
2018-11-02T07:08:09.695Z,17.67
2018-11-02T07:10:36.296Z,17.97
2018-11-02T07:13:03.062Z,17.67
2018-11-02T07:15:29.820Z,17.73
2018-11-02T07:17:57.324Z,19.67
2018-11-02T07:23:35.813Z,19.77
2018-11-02T07:26:02.867Z,20.60
2018-11-02T07:28:29.850Z,18.73
2018-11-02T07:34:07.085Z,20.17
2018-11-02T07:36:33.938Z,21.20
2018-11-02T07:39:19.120Z,20.13
2018-11-02T07:41:45.945Z,21.40
2018-11-02T07:44:12.668Z,21.03
2018-11-02T07:46:39.420Z,20.70
2018-11-02T07:49:06.349Z,21.50
2018-11-02T07:51:33.102Z,20.50
2018-11-02T07:53:59.862Z,20.97
2018-11-02T07:56:26.711Z,19.20
2018-11-02T07:58:54.258Z,19.20
2018-11-02T08:01:21.785Z,19.60
2018-11-02T08:03:48.665Z,19.97
2018-11-02T08:06:15.507Z,19.23
2018-11-02T08:08:42.254Z,20.03
2018-11-02T08:11:10.025Z,20.17
2018-11-02T08:13:37.109Z,20.40
2018-11-02T08:16:05.073Z,20.30
2018-11-02T08:18:31.976Z,20.80
2018-11-02T08:20:58.715Z,20.50
2018-11-02T08:23:25.473Z,21.10
2018-11-02T08:25:52.246Z,20.80
2018-11-02T08:28:19.030Z,21.77
2018-11-02T08:30:46.240Z,21.07
2018-11-02T08:33:13.709Z,21.20
2018-11-02T08:35:40.474Z,21.53
2018-11-02T08:38:07.291Z,21.60
2018-11-02T08:40:34.387Z,21.17
2018-11-02T08:43:01.222Z,22.70
2018-11-02T08:45:28.012Z,21.27
2018-11-02T08:47:54.759Z,20.57
2018-11-02T08:50:22.261Z,21.27
2018-11-02T08:52:49.101Z,20.17
2018-11-02T08:55:15.840Z,21.90
2018-11-02T08:57:42.640Z,21.40
2018-11-02T09:00:09.541Z,21.60
2018-11-02T09:02:36.383Z,19.83
2018-11-02T09:05:03.510Z,19.43
2018-11-02T09:07:30.277Z,20.53
2018-11-02T09:09:57.028Z,20.53
2018-11-02T09:12:23.803Z,21.00
2018-11-02T09:14:50.518Z,21.23
2018-11-02T09:17:17.969Z,22.67
2018-11-02T09:19:44.817Z,21.87
2018-11-02T09:22:11.459Z,20.93
2018-11-02T09:24:38.888Z,21.83
2018-11-02T09:27:05.595Z,22.03
2018-11-02T09:29:33.028Z,21.63
2018-11-02T09:31:59.685Z,21.83
2018-11-02T09:34:26.365Z,21.07
2018-11-02T09:36:53.838Z,21.33
2018-11-02T09:39:21.418Z,20.80
2018-11-02T09:41:48.135Z,20.97
2018-11-02T09:44:15.569Z,21.23
2018-11-02T09:46:42.313Z,20.10
2018-11-02T09:49:09.022Z,20.07
2018-11-02T09:51:35.808Z,20.00
2018-11-02T09:54:02.571Z,19.23
2018-11-02T09:56:29.977Z,19.13
2018-11-02T09:58:56.684Z,19.60
2018-11-02T10:01:23.409Z,20.23
2018-11-02T10:03:50.090Z,18.80
2018-11-02T10:06:16.784Z,19.77
2018-11-02T10:08:43.685Z,19.33
2018-11-02T10:11:11.158Z,20.13
2018-11-02T10:13:37.857Z,19.67
2018-11-02T10:16:04.686Z,20.63
2018-11-02T10:18:31.420Z,21.30
2018-11-02T10:20:58.100Z,21.27
2018-11-02T10:23:25.644Z,20.93
2018-11-02T10:25:52.371Z,21.87
2018-11-02T10:28:19.208Z,20.23
2018-11-02T10:30:45.975Z,21.23
2018-11-02T10:33:12.735Z,21.00
2018-11-02T10:35:40.339Z,20.13
2018-11-02T10:38:07.016Z,20.83
2018-11-02T10:40:33.731Z,20.10
2018-11-02T10:43:00.579Z,20.53
2018-11-02T10:45:27.393Z,20.33
2018-11-02T10:47:54.188Z,21.07
2018-11-02T10:50:21.536Z,20.97
2018-11-02T10:52:48.240Z,19.23
2018-11-02T10:55:15.009Z,20.93
2018-11-02T10:57:41.673Z,21.90
2018-11-02T11:00:08.464Z,20.57
2018-11-02T11:02:36.054Z,20.33
2018-11-02T11:05:02.793Z,20.10
2018-11-02T11:07:29.511Z,21.73
2018-11-02T11:09:56.331Z,21.30
2018-11-02T11:12:23.097Z,21.00
2018-11-02T11:14:50.725Z,21.43
2018-11-02T11:17:18.265Z,21.73
2018-11-02T11:19:44.975Z,20.27
2018-11-02T11:22:11.678Z,21.07
2018-11-02T11:24:38.560Z,21.10
2018-11-02T11:27:05.272Z,22.20
2018-11-02T11:29:32.068Z,22.53
2018-11-02T11:31:59.677Z,23.13
2018-11-02T11:34:26.771Z,20.83
2018-11-02T11:36:53.650Z,22.37
2018-11-02T11:39:20.355Z,22.37
2018-11-02T11:41:47.048Z,23.00
2018-11-02T11:44:13.954Z,23.20
2018-11-02T11:46:41.421Z,24.77
2018-11-02T11:49:08.898Z,24.77
2018-11-02T11:51:36.499Z,24.60
2018-11-02T11:54:03.227Z,23.20
2018-11-02T11:56:29.921Z,23.57
2018-11-02T11:58:57.348Z,22.93
2018-11-02T12:01:24.040Z,23.80
2018-11-02T12:03:50.884Z,23.03
2018-11-02T12:06:17.576Z,23.80
2018-11-02T12:08:44.296Z,23.57
2018-11-02T12:11:11.138Z,23.77
2018-11-02T12:13:37.809Z,22.23
2018-11-02T12:16:05.335Z,23.13
2018-11-02T12:18:32.167Z,25.00
2018-11-02T12:20:58.853Z,23.67
2018-11-02T12:23:26.318Z,23.77
2018-11-02T12:25:53.764Z,23.37
2018-11-02T12:28:20.533Z,22.67
2018-11-02T12:30:47.395Z,23.50
2018-11-02T12:33:14.054Z,23.00
2018-11-02T12:35:40.767Z,23.27
2018-11-02T12:38:07.630Z,23.87
2018-11-02T12:40:34.322Z,22.97
2018-11-02T12:43:01.722Z,23.27
2018-11-02T12:45:28.874Z,23.63
2018-11-02T12:47:55.638Z,22.80
2018-11-02T12:50:23.159Z,23.53
2018-11-02T12:52:49.893Z,23.17
2018-11-02T12:55:16.594Z,22.53
2018-11-02T12:57:44.015Z,21.80
2018-11-02T13:00:10.900Z,22.73
2018-11-02T13:02:37.573Z,23.07
2018-11-02T13:05:04.283Z,22.47
2018-11-02T13:07:31.761Z,21.97
2018-11-02T13:09:58.423Z,22.97
2018-11-02T13:12:25.154Z,22.73
2018-11-02T13:14:51.919Z,22.83
2018-11-02T13:17:18.591Z,21.83
2018-11-02T13:19:46.001Z,21.90
2018-11-02T13:22:12.889Z,22.67
2018-11-02T13:24:39.539Z,21.53
2018-11-02T13:27:07.007Z,21.10
2018-11-02T13:29:34.174Z,21.27
2018-11-02T13:32:00.875Z,19.00
2018-11-02T13:34:28.589Z,20.20
2018-11-02T13:36:55.378Z,20.00
2018-11-02T13:39:21.999Z,18.63
2018-11-02T13:41:48.867Z,18.87
2018-11-02T13:44:16.275Z,19.17
2018-11-02T13:46:43.738Z,19.33
2018-11-02T13:49:10.589Z,19.87
2018-11-02T13:51:38.058Z,20.63
2018-11-02T13:54:04.748Z,20.03
2018-11-02T13:56:31.599Z,19.87
2018-11-02T13:58:58.261Z,20.77
2018-11-02T14:01:31.733Z,20.00
2018-11-02T14:03:58.580Z,20.40
2018-11-02T14:06:25.246Z,20.13
2018-11-02T14:08:51.936Z,20.93
2018-11-02T14:11:19.413Z,20.87
2018-11-02T14:13:46.974Z,20.47
2018-11-02T14:16:13.674Z,19.07
2018-11-02T14:18:41.114Z,20.03
2018-11-02T14:21:07.939Z,19.67
2018-11-02T14:23:34.592Z,18.97
2018-11-02T14:26:01.310Z,18.67
2018-11-02T14:28:28.025Z,19.63
2018-11-02T14:30:54.708Z,19.67
2018-11-02T14:33:21.402Z,19.27
2018-11-02T14:35:48.143Z,18.63
2018-11-02T14:38:15.358Z,19.27
2018-11-02T14:40:42.805Z,18.33
2018-11-02T14:43:09.637Z,19.37
2018-11-02T14:45:36.294Z,18.67
2018-11-02T14:48:03.048Z,18.57
2018-11-02T14:50:30.706Z,19.90
2018-11-02T14:52:58.146Z,18.53
2018-11-02T14:55:25.707Z,18.07
2018-11-02T14:57:52.407Z,17.50
2018-11-02T15:00:19.066Z,17.57
2018-11-02T15:02:45.869Z,16.50
2018-11-02T15:05:12.576Z,18.13
2018-11-02T15:07:39.322Z,16.83
2018-11-02T15:10:06.888Z,15.87
2018-11-02T15:12:34.308Z,16.07
2018-11-02T15:15:00.947Z,16.10
2018-11-02T15:17:27.767Z,17.10
2018-11-02T15:19:54.602Z,16.30
2018-11-02T15:22:21.299Z,16.23
2018-11-02T15:24:48.807Z,16.30
2018-11-02T15:27:15.465Z,15.40
2018-11-02T15:29:42.144Z,15.63
2018-11-02T15:32:08.981Z,16.20
2018-11-02T15:34:36.684Z,15.93
2018-11-02T15:37:03.926Z,16.70
2018-11-02T15:39:31.164Z,16.33
2018-11-02T15:41:58.527Z,15.60
2018-11-02T15:44:25.701Z,16.67
2018-11-02T15:46:52.982Z,15.53
2018-11-02T15:49:20.760Z,16.80
2018-11-02T15:51:47.918Z,15.80
2018-11-02T15:54:15.870Z,16.17
2018-11-02T15:56:42.967Z,15.37
2018-11-02T15:59:12.523Z,14.30
2018-11-02T16:01:40.008Z,15.00
2018-11-02T16:04:07.536Z,15.77
2018-11-02T16:06:35.252Z,16.20
2018-11-02T16:09:02.084Z,14.67
2018-11-02T16:11:29.006Z,15.00
2018-11-02T16:13:57.636Z,15.67
2018-11-02T16:16:24.577Z,15.37
2018-11-02T16:18:51.710Z,14.70
2018-11-02T16:21:20.087Z,13.90
2018-11-02T16:23:46.863Z,15.23
2018-11-02T16:26:13.769Z,13.70
2018-11-02T16:28:42.765Z,13.97
2018-11-02T16:31:10.776Z,15.13
2018-11-02T16:33:38.570Z,15.23
2018-11-02T16:36:05.776Z,15.23
2018-11-02T16:38:32.913Z,15.83
2018-11-02T16:41:01.231Z,13.60
2018-11-02T16:43:28.982Z,14.87
2018-11-02T16:45:56.613Z,15.17
2018-11-02T16:48:24.932Z,15.07
2018-11-02T16:50:52.164Z,13.53
2018-11-02T16:53:20.983Z,15.37
2018-11-02T16:55:48.741Z,14.60
2018-11-02T16:58:15.598Z,15.07
2018-11-02T17:00:43.037Z,14.00
2018-11-02T17:03:09.789Z,15.87
2018-11-02T17:05:36.521Z,15.27
2018-11-02T17:08:03.217Z,15.30
2018-11-02T17:10:29.901Z,14.90
2018-11-02T17:12:56.718Z,13.97
2018-11-02T17:15:23.384Z,14.33
2018-11-02T17:17:50.098Z,14.27
2018-11-02T17:20:16.908Z,14.60
2018-11-02T17:22:43.616Z,15.40
2018-11-02T17:25:10.309Z,15.03
2018-11-02T17:27:37.147Z,14.87
2018-11-02T17:30:03.892Z,16.37
2018-11-02T17:32:30.560Z,15.40
2018-11-02T17:34:57.279Z,17.20
2018-11-02T17:37:24.006Z,15.67
2018-11-02T17:39:51.485Z,15.97
2018-11-02T17:42:18.266Z,17.57
2018-11-02T17:44:45.473Z,16.90
2018-11-02T17:47:12.930Z,17.63
2018-11-02T17:49:39.878Z,18.63
2018-11-02T17:52:06.803Z,18.73
2018-11-02T17:54:34.134Z,19.17
2018-11-02T17:57:02.072Z,19.90
2018-11-02T17:59:29.606Z,19.17
2018-11-02T18:01:56.810Z,19.40
2018-11-02T18:04:24.722Z,20.00
2018-11-02T18:06:51.605Z,18.90
2018-11-02T18:09:19.434Z,17.90
2018-11-02T18:11:46.905Z,18.67
2018-11-02T18:14:14.649Z,17.07
2018-11-02T18:16:42.618Z,17.63
2018-11-02T18:19:09.428Z,17.03
2018-11-02T18:21:36.427Z,16.83
2018-11-02T18:24:03.966Z,18.33
2018-11-02T18:26:31.835Z,17.63
2018-11-02T18:28:59.092Z,16.97
2018-11-02T18:31:26.842Z,17.00
2018-11-02T18:33:53.905Z,16.67
2018-11-02T18:36:21.644Z,17.30
2018-11-02T18:38:48.550Z,16.33
2018-11-02T18:41:15.994Z,16.37
2018-11-02T18:43:43.519Z,16.93
2018-11-02T18:46:11.013Z,16.73
2018-11-02T18:48:38.261Z,16.77
2018-11-02T18:51:05.483Z,15.43
2018-11-02T18:53:34.487Z,15.13
2018-11-02T18:56:03.132Z,15.40
2018-11-02T18:58:31.298Z,14.97
2018-11-02T19:00:59.043Z,14.67
2018-11-02T19:03:26.620Z,14.00
2018-11-02T19:05:54.633Z,13.83
2018-11-02T19:08:22.239Z,13.83
2018-11-02T19:10:49.071Z,13.50
2018-11-02T19:13:16.170Z,13.97
2018-11-02T19:15:43.793Z,12.93
2018-11-02T19:18:10.892Z,13.10
2018-11-02T19:20:37.954Z,12.27
2018-11-02T19:23:05.682Z,11.90
2018-11-02T19:25:33.680Z,11.17
2018-11-02T19:28:00.980Z,11.20
2018-11-02T19:30:28.546Z,10.57
2018-11-02T19:32:56.460Z,10.83
2018-11-02T19:35:24.071Z,10.43
2018-11-02T19:37:51.655Z,9.90
2018-11-02T19:40:19.181Z,9.33
2018-11-02T19:42:46.329Z,10.40
2018-11-02T19:45:13.674Z,9.17
2018-11-02T19:47:42.135Z,8.77
2018-11-02T19:50:09.217Z,8.57
2018-11-02T19:52:37.071Z,9.63
2018-11-02T19:55:04.459Z,8.67
2018-11-02T19:57:34.361Z,8.77
2018-11-02T20:00:02.411Z,8.23
2018-11-02T20:02:30.027Z,8.17
2018-11-02T20:04:56.820Z,8.33
2018-11-02T20:07:24.000Z,8.13
2018-11-02T20:09:51.828Z,8.83
2018-11-02T20:12:19.403Z,8.43
2018-11-02T20:14:46.801Z,8.33
2018-11-02T20:17:13.557Z,8.53
2018-11-02T20:19:40.244Z,7.83
2018-11-02T20:22:07.706Z,7.70
2018-11-02T20:24:35.102Z,7.87
2018-11-02T20:27:02.609Z,8.30
2018-11-02T20:29:30.297Z,7.80
2018-11-02T20:31:57.139Z,7.23
2018-11-02T20:34:24.605Z,7.37
2018-11-02T20:36:51.508Z,6.53
2018-11-02T20:39:18.227Z,7.30
2018-11-02T20:41:44.980Z,7.00
2018-11-02T20:44:11.857Z,7.20
2018-11-02T20:46:38.571Z,7.40
2018-11-02T20:49:06.071Z,6.97
2018-11-02T20:51:33.425Z,6.90
2018-11-02T20:54:00.475Z,7.30
2018-11-02T20:56:29.889Z,7.70
2018-11-02T20:58:57.859Z,6.60
2018-11-02T21:01:24.784Z,6.67
2018-11-02T21:03:52.117Z,7.40
2018-11-02T21:06:20.105Z,6.90
2018-11-02T21:08:47.395Z,6.13
2018-11-02T21:11:15.160Z,6.57
2018-11-02T21:13:41.992Z,6.50
2018-11-02T21:16:09.111Z,6.27
2018-11-02T21:18:36.418Z,7.23
2018-11-02T21:21:03.479Z,6.87
2018-11-02T21:23:30.546Z,6.60
2018-11-02T21:25:58.351Z,6.47
2018-11-02T21:28:27.145Z,7.30
2018-11-02T21:30:55.571Z,6.17
2018-11-02T21:33:23.349Z,6.50
2018-11-02T21:35:50.490Z,6.63
2018-11-02T21:38:17.906Z,6.50
2018-11-02T21:40:44.987Z,7.13
2018-11-02T21:43:12.129Z,7.17
2018-11-02T21:45:40.597Z,6.87
2018-11-02T21:48:08.848Z,7.00
2018-11-02T21:50:35.718Z,6.00
2018-11-02T21:53:03.004Z,7.83
2018-11-02T21:55:29.782Z,6.37
2018-11-02T21:57:56.548Z,7.13
2018-11-02T22:03:21.887Z,8.03
2018-11-02T22:05:49.151Z,7.83
2018-11-02T22:08:16.838Z,8.10
2018-11-02T22:10:43.800Z,7.13
2018-11-02T22:13:11.625Z,8.20
2018-11-02T22:15:40.244Z,7.70
2018-11-02T22:18:07.794Z,7.20
2018-11-02T22:20:35.123Z,7.67
2018-11-02T22:23:03.188Z,7.40
2018-11-02T22:25:31.496Z,7.77
2018-11-02T22:28:00.746Z,7.90
2018-11-02T22:30:27.933Z,7.80
2018-11-02T22:32:55.624Z,7.90
2018-11-02T22:35:23.713Z,7.87
2018-11-02T22:37:51.133Z,7.67
2018-11-02T22:40:18.016Z,7.20
2018-11-02T22:42:45.400Z,7.73
2018-11-02T22:45:13.744Z,8.23
2018-11-02T22:47:41.165Z,7.67
2018-11-02T22:50:09.216Z,7.67
2018-11-02T22:52:37.740Z,7.97
2018-11-02T22:55:07.974Z,7.87
2018-11-02T22:57:35.364Z,8.20
2018-11-02T23:00:02.255Z,8.40
2018-11-02T23:02:29.225Z,8.63
2018-11-02T23:04:56.845Z,8.00
2018-11-02T23:07:24.485Z,8.43
2018-11-02T23:09:51.600Z,8.37
2018-11-02T23:12:18.498Z,8.93
2018-11-02T23:14:45.905Z,7.80
2018-11-02T23:17:12.856Z,8.37
2018-11-02T23:19:40.256Z,8.20
2018-11-02T23:22:07.928Z,8.80
2018-11-02T23:24:35.163Z,8.77
2018-11-02T23:27:02.945Z,9.30
2018-11-02T23:29:29.793Z,8.63
2018-11-02T23:31:57.254Z,9.10
2018-11-02T23:34:23.936Z,8.77
2018-11-02T23:36:51.342Z,8.10
2018-11-02T23:39:19.337Z,8.33
2018-11-02T23:41:46.272Z,8.43
2018-11-02T23:44:14.451Z,8.50
2018-11-02T23:46:41.331Z,8.70
2018-11-02T23:49:08.764Z,8.50
2018-11-02T23:51:36.365Z,8.80
2018-11-02T23:54:03.313Z,7.97
2018-11-02T23:56:31.043Z,8.20
2018-11-02T23:58:58.307Z,8.50
